Time;durP1;ratioP1;P1;durP2;ratioP2;P2;SDS_P1;SDS_P2;PMS_P1;PMS_P2;Temp;Humidity;BMP_temperature;BMP_pressure;BME280_temperature;BME280_humidity;BME280_pressure;Samples;Min_cycle;Max_cycle;Signal;HPM_P1;HPM_P2
2022/04/27 00:00:20;;;;;;;7.73;4.73;;;;;;;;;;4970420;28;20240;-59
2022/04/27 00:02:47;;;;;;;4.60;4.07;;;;;;;;;;4970496;28;20255;-59
2022/04/27 00:05:14;;;;;;;5.20;4.70;;;;;;;;;;4970407;28;20959;-59
2022/04/27 00:07:41;;;;;;;6.57;4.77;;;;;;;;;;4970845;28;20291;-59
2022/04/27 00:10:09;;;;;;;6.80;4.67;;;;;;;;;;4970335;28;20344;-59
2022/04/27 00:12:37;;;;;;;5.43;4.80;;;;;;;;;;4969942;28;20776;-59
2022/04/27 00:15:04;;;;;;;7.60;5.13;;;;;;;;;;4970089;28;20202;-59
2022/04/27 00:17:31;;;;;;;5.13;4.63;;;;;;;;;;4969963;28;20214;-59
2022/04/27 00:19:58;;;;;;;5.33;4.83;;;;;;;;;;4970364;28;20210;-59
2022/04/27 00:22:26;;;;;;;6.20;5.23;;;;;;;;;;4969314;28;20203;-59
2022/04/27 00:24:53;;;;;;;6.20;5.30;;;;;;;;;;4970752;28;20301;-59
2022/04/27 00:27:20;;;;;;;5.93;5.23;;;;;;;;;;4969585;28;20206;-59
2022/04/27 00:29:48;;;;;;;5.27;4.77;;;;;;;;;;4970325;28;20264;-59
2022/04/27 00:32:15;;;;;;;8.20;5.53;;;;;;;;;;4970499;28;20280;-59
2022/04/27 00:34:42;;;;;;;6.70;5.90;;;;;;;;;;4969980;28;20214;-59
2022/04/27 00:37:09;;;;;;;6.03;5.10;;;;;;;;;;4970065;28;20210;-59
2022/04/27 00:39:36;;;;;;;9.93;5.73;;;;;;;;;;4969376;28;20247;-59
2022/04/27 00:42:13;;;;;;;5.73;5.23;;;;;;;;;;4969943;28;20240;-59
2022/04/27 00:44:43;;;;;;;6.27;5.07;;;;;;;;;;4969855;28;20217;-61
2022/04/27 00:47:12;;;;;;;7.30;5.10;;;;;;;;;;4969773;28;20735;-60
2022/04/27 00:49:42;;;;;;;7.30;5.70;;;;;;;;;;4969257;28;20926;-60
2022/04/27 00:52:12;;;;;;;7.87;6.13;;;;;;;;;;4969464;28;20230;-60
2022/04/27 00:54:39;;;;;;;9.23;6.03;;;;;;;;;;4969375;28;20220;-60
2022/04/27 00:57:06;;;;;;;6.33;4.93;;;;;;;;;;4963708;28;20580;-60
2022/04/27 00:59:33;;;;;;;6.00;5.10;;;;;;;;;;4969878;28;20238;-60
2022/04/27 01:02:00;;;;;;;6.23;5.33;;;;;;;;;;4970634;28;20656;-59
2022/04/27 01:04:31;;;;;;;5.87;5.20;;;;;;;;;;4963462;28;20281;-60
2022/04/27 01:06:58;;;;;;;7.47;6.17;;;;;;;;;;4969558;28;20241;-59
2022/04/27 01:09:25;;;;;;;8.97;5.97;;;;;;;;;;4954764;28;20246;-59
2022/04/27 01:11:53;;;;;;;6.13;4.87;;;;;;;;;;4969511;28;20233;-59
2022/04/27 01:14:20;;;;;;;6.20;5.57;;;;;;;;;;4969097;28;20222;-60
2022/04/27 01:16:52;;;;;;;8.07;4.93;;;;;;;;;;4969569;28;20206;-59
2022/04/27 01:19:19;;;;;;;8.03;5.53;;;;;;;;;;4969259;28;20301;-59
2022/04/27 01:21:49;;;;;;;8.03;5.30;;;;;;;;;;4969488;28;20206;-59
2022/04/27 01:24:19;;;;;;;8.90;5.60;;;;;;;;;;4968469;28;20295;-59
2022/04/27 01:26:47;;;;;;;7.23;5.50;;;;;;;;;;4969390;28;20302;-59
2022/04/27 01:29:16;;;;;;;7.00;5.87;;;;;;;;;;4969262;28;20214;-59
2022/04/27 01:31:44;;;;;;;8.03;5.87;;;;;;;;;;4969104;28;20344;-59
2022/04/27 01:34:11;;;;;;;6.47;5.83;;;;;;;;;;4968896;28;20217;-60
2022/04/27 01:36:38;;;;;;;8.00;5.37;;;;;;;;;;4968845;28;20364;-59
2022/04/27 01:39:06;;;;;;;6.80;5.57;;;;;;;;;;4968569;28;20214;-60
2022/04/27 01:41:33;;;;;;;8.77;5.47;;;;;;;;;;4969330;28;20620;-60
2022/04/27 01:44:01;;;;;;;8.57;5.90;;;;;;;;;;4969359;28;20218;-59
2022/04/27 01:46:28;;;;;;;9.17;5.57;;;;;;;;;;4970395;28;20216;-60
2022/04/27 01:48:55;;;;;;;8.30;5.87;;;;;;;;;;4972176;28;20583;-60
2022/04/27 01:54:14;;;;;;;9.80;5.13;;;;;;;;;;4973767;28;20817;-60
2022/04/27 01:54:17;;;;;;;7.33;5.43;;;;;;;;;;4970915;28;20220;-60
2022/04/27 01:56:44;;;;;;;10.33;5.83;;;;;;;;;;4957001;28;20230;-61
2022/04/27 01:59:12;;;;;;;7.50;5.60;;;;;;;;;;4971830;28;20694;-60
2022/04/27 02:01:39;;;;;;;7.13;5.67;;;;;;;;;;4975256;28;20241;-60
2022/04/27 02:04:06;;;;;;;8.03;5.80;;;;;;;;;;4968890;28;20210;-60
2022/04/27 02:06:35;;;;;;;9.30;6.37;;;;;;;;;;4971004;28;20222;-60
2022/04/27 02:09:02;;;;;;;10.57;6.00;;;;;;;;;;4969329;28;20725;-61
2022/04/27 02:11:31;;;;;;;5.67;5.07;;;;;;;;;;4975824;28;20212;-58
2022/04/27 02:13:58;;;;;;;6.83;5.07;;;;;;;;;;4964528;28;20630;-58
2022/04/27 02:16:25;;;;;;;6.13;5.53;;;;;;;;;;4963973;28;20230;-58
2022/04/27 02:18:52;;;;;;;6.20;5.00;;;;;;;;;;4960665;28;20208;-58
2022/04/27 02:21:20;;;;;;;7.40;6.07;;;;;;;;;;4960238;28;20273;-58
2022/04/27 02:23:49;;;;;;;8.37;5.73;;;;;;;;;;4969501;28;20293;-58
2022/04/27 02:26:16;;;;;;;8.00;5.57;;;;;;;;;;4968110;28;20560;-57
2022/04/27 02:28:46;;;;;;;8.37;6.10;;;;;;;;;;4965771;28;20228;-57
2022/04/27 02:31:13;;;;;;;5.60;4.70;;;;;;;;;;4970093;28;20210;-58
2022/04/27 02:33:41;;;;;;;8.30;5.57;;;;;;;;;;4979247;28;20649;-58
2022/04/27 02:36:08;;;;;;;7.80;6.07;;;;;;;;;;4976724;28;20206;-58
2022/04/27 02:38:35;;;;;;;7.00;5.37;;;;;;;;;;4978980;28;20207;-59
2022/04/27 02:41:03;;;;;;;9.77;5.93;;;;;;;;;;4983312;28;20210;-59
2022/04/27 02:43:31;;;;;;;8.57;5.43;;;;;;;;;;4983347;28;20248;-59
2022/04/27 02:46:00;;;;;;;6.93;5.03;;;;;;;;;;4976280;28;20589;-59
2022/04/27 02:48:27;;;;;;;8.43;5.10;;;;;;;;;;4980000;28;20237;-59
2022/04/27 02:53:39;;;;;;;9.50;5.37;;;;;;;;;;4972112;28;20462;-59
2022/04/27 02:56:06;;;;;;;7.13;5.23;;;;;;;;;;4972481;28;20203;-59
2022/04/27 02:58:33;;;;;;;5.57;4.67;;;;;;;;;;4975048;28;20976;-59
2022/04/27 03:01:01;;;;;;;5.53;5.00;;;;;;;;;;4976024;28;20213;-59
2022/04/27 03:03:28;;;;;;;7.23;5.60;;;;;;;;;;4972019;28;20210;-59
2022/04/27 03:05:55;;;;;;;6.03;4.87;;;;;;;;;;4972353;28;20226;-59
2022/04/27 03:08:22;;;;;;;5.77;4.73;;;;;;;;;;4974522;28;20234;-59
2022/04/27 03:10:49;;;;;;;6.63;5.07;;;;;;;;;;4977845;28;20664;-63
2022/04/27 03:13:16;;;;;;;5.83;5.00;;;;;;;;;;4980180;28;20238;-59
2022/04/27 03:15:43;;;;;;;13.60;7.83;;;;;;;;;;4977627;28;20211;-59
2022/04/27 03:18:19;;;;;;;11.03;7.80;;;;;;;;;;4976025;28;20217;-60
2022/04/27 03:20:47;;;;;;;15.13;8.03;;;;;;;;;;4979049;28;20217;-59
2022/04/27 03:23:14;;;;;;;11.60;7.33;;;;;;;;;;4975858;28;20246;-59
2022/04/27 03:25:41;;;;;;;8.17;5.70;;;;;;;;;;4974626;28;20225;-59
2022/04/27 03:28:08;;;;;;;12.07;6.70;;;;;;;;;;4977351;28;20210;-59
2022/04/27 03:30:36;;;;;;;13.07;7.43;;;;;;;;;;4972768;28;20210;-60
2022/04/27 03:33:03;;;;;;;14.23;8.33;;;;;;;;;;4976816;28;20641;-59
2022/04/27 03:35:31;;;;;;;10.93;6.60;;;;;;;;;;4982608;28;20217;-60
2022/04/27 03:37:58;;;;;;;9.83;6.43;;;;;;;;;;4978000;28;20210;-60
2022/04/27 03:40:25;;;;;;;8.90;6.37;;;;;;;;;;4976504;28;20203;-60
2022/04/27 03:42:52;;;;;;;8.27;4.87;;;;;;;;;;4976055;28;20934;-60
2022/04/27 03:45:20;;;;;;;4.50;4.10;;;;;;;;;;4977714;28;20241;-60
2022/04/27 03:47:47;;;;;;;6.87;4.90;;;;;;;;;;4977444;28;20206;-60
2022/04/27 03:50:14;;;;;;;9.40;6.00;;;;;;;;;;4976468;28;20322;-60
2022/04/27 03:52:43;;;;;;;11.30;7.30;;;;;;;;;;4974362;28;20309;-60
2022/04/27 03:55:10;;;;;;;8.60;6.63;;;;;;;;;;4978085;28;20296;-60
2022/04/27 03:57:38;;;;;;;12.37;7.27;;;;;;;;;;4976331;28;20221;-60
2022/04/27 04:00:06;;;;;;;8.30;6.27;;;;;;;;;;4975372;28;20213;-60
2022/04/27 04:02:33;;;;;;;7.40;5.80;;;;;;;;;;4967995;28;20569;-60
2022/04/27 04:05:00;;;;;;;8.00;4.90;;;;;;;;;;4969838;28;20680;-61
2022/04/27 04:07:27;;;;;;;6.60;4.87;;;;;;;;;;4977712;28;20197;-60
2022/04/27 04:09:55;;;;;;;6.40;4.60;;;;;;;;;;4977622;28;20249;-60
2022/04/27 04:12:22;;;;;;;9.13;4.27;;;;;;;;;;4976290;28;20213;-61
2022/04/27 04:14:50;;;;;;;5.20;4.33;;;;;;;;;;4978275;28;20214;-60
2022/04/27 04:17:17;;;;;;;4.90;4.10;;;;;;;;;;4977182;28;20300;-60
2022/04/27 04:19:44;;;;;;;4.93;4.33;;;;;;;;;;4977055;28;20213;-60
2022/04/27 04:22:13;;;;;;;4.37;3.67;;;;;;;;;;4974857;28;20205;-60
2022/04/27 04:28:29;;;;;;;4.87;4.40;;;;;;;;;;4976427;28;20214;-60
2022/04/27 04:30:13;;;;;;;4.20;3.87;;;;;;;;;;4978787;28;20221;-60
2022/04/27 04:32:40;;;;;;;5.87;4.87;;;;;;;;;;4977070;28;20652;-60
2022/04/27 04:35:07;;;;;;;5.20;4.33;;;;;;;;;;4980123;28;20210;-60
2022/04/27 04:37:34;;;;;;;4.87;4.30;;;;;;;;;;4975131;28;20277;-60
2022/04/27 04:40:02;;;;;;;4.90;4.40;;;;;;;;;;4976495;28;20255;-60
2022/04/27 04:42:30;;;;;;;4.73;4.13;;;;;;;;;;4975806;28;20217;-60
2022/04/27 04:44:57;;;;;;;6.53;4.27;;;;;;;;;;4979180;28;20244;-60
2022/04/27 04:47:25;;;;;;;5.63;4.53;;;;;;;;;;4971362;28;20293;-60
2022/04/27 04:49:52;;;;;;;8.00;4.80;;;;;;;;;;4981047;28;20206;-59
2022/04/27 04:52:19;;;;;;;3.93;3.53;;;;;;;;;;4970273;28;20346;-60
2022/04/27 04:54:46;;;;;;;6.97;4.77;;;;;;;;;;4980332;28;20705;-59
2022/04/27 04:57:13;;;;;;;5.53;4.63;;;;;;;;;;4972961;28;20262;-60
2022/04/27 04:59:45;;;;;;;5.00;3.90;;;;;;;;;;4974237;28;20696;-60
2022/04/27 05:02:12;;;;;;;5.60;4.33;;;;;;;;;;4973457;28;20207;-59
2022/04/27 05:04:39;;;;;;;5.03;4.47;;;;;;;;;;4977504;28;20265;-59
2022/04/27 05:07:06;;;;;;;6.47;4.43;;;;;;;;;;4974055;28;20203;-59
2022/04/27 05:09:33;;;;;;;5.23;4.33;;;;;;;;;;4974277;28;20245;-60
2022/04/27 05:12:00;;;;;;;5.87;4.70;;;;;;;;;;4971273;28;20206;-61
2022/04/27 05:14:27;;;;;;;10.07;5.73;;;;;;;;;;4975652;28;20233;-61
2022/04/27 05:16:56;;;;;;;6.23;5.63;;;;;;;;;;4975063;28;20221;-59
2022/04/27 05:19:23;;;;;;;5.00;4.50;;;;;;;;;;4977809;28;20202;-60
2022/04/27 05:21:50;;;;;;;8.23;5.00;;;;;;;;;;4977506;28;20671;-59
2022/04/27 05:24:17;;;;;;;7.07;5.20;;;;;;;;;;4969588;28;20256;-59
2022/04/27 05:26:44;;;;;;;8.23;4.70;;;;;;;;;;4975209;28;20866;-59
2022/04/27 05:31:58;;;;;;;7.43;5.87;;;;;;;;;;4981994;28;20332;-59
2022/04/27 05:34:26;;;;;;;9.27;6.07;;;;;;;;;;4978057;28;20225;-59
2022/04/27 05:36:53;;;;;;;6.20;5.03;;;;;;;;;;4975675;28;20593;-59
2022/04/27 05:39:21;;;;;;;7.00;5.97;;;;;;;;;;4979098;28;20213;-58
2022/04/27 05:41:49;;;;;;;9.93;5.70;;;;;;;;;;4977496;28;20232;-58
2022/04/27 05:44:17;;;;;;;5.67;5.03;;;;;;;;;;4978398;28;20307;-58
2022/04/27 05:46:44;;;;;;;6.50;5.20;;;;;;;;;;4977989;28;20206;-59
2022/04/27 05:49:12;;;;;;;6.93;5.20;;;;;;;;;;4975085;28;20202;-58
2022/04/27 05:51:39;;;;;;;6.23;5.30;;;;;;;;;;4977888;28;20839;-58
2022/04/27 05:54:06;;;;;;;6.83;5.30;;;;;;;;;;4976274;28;20222;-59
2022/04/27 05:56:33;;;;;;;7.80;5.50;;;;;;;;;;4969645;28;20285;-60
2022/04/27 05:59:01;;;;;;;8.53;6.67;;;;;;;;;;4969610;28;20233;-60
2022/04/27 06:01:28;;;;;;;10.57;7.10;;;;;;;;;;4973863;28;20360;-60
2022/04/27 06:03:55;;;;;;;7.57;6.43;;;;;;;;;;4977293;28;20198;-59
2022/04/27 06:06:24;;;;;;;9.43;7.33;;;;;;;;;;4978696;28;20229;-60
2022/04/27 06:08:51;;;;;;;9.60;7.50;;;;;;;;;;4979347;28;20337;-60
2022/04/27 06:11:19;;;;;;;9.77;8.23;;;;;;;;;;4983500;28;20205;-59
2022/04/27 06:13:46;;;;;;;10.33;7.87;;;;;;;;;;4984848;28;20325;-60
2022/04/27 06:16:14;;;;;;;10.20;7.90;;;;;;;;;;4977935;28;20213;-58
2022/04/27 06:18:41;;;;;;;11.03;7.93;;;;;;;;;;4977354;28;20209;-59
2022/04/27 06:21:08;;;;;;;11.30;8.13;;;;;;;;;;4984387;28;20760;-60
2022/04/27 06:23:37;;;;;;;11.53;8.50;;;;;;;;;;4983649;28;20212;-60
2022/04/27 06:26:05;;;;;;;10.57;8.20;;;;;;;;;;4978880;28;20214;-60
2022/04/27 06:28:32;;;;;;;11.07;8.13;;;;;;;;;;4981294;28;20650;-59
2022/04/27 06:30:59;;;;;;;8.73;6.87;;;;;;;;;;4978224;28;20222;-60
2022/04/27 06:33:27;;;;;;;10.63;8.30;;;;;;;;;;4978075;28;20218;-60
2022/04/27 06:35:54;;;;;;;10.10;7.40;;;;;;;;;;4981607;28;20210;-60
2022/04/27 06:38:21;;;;;;;10.53;8.07;;;;;;;;;;4983958;28;20214;-60
2022/04/27 06:40:49;;;;;;;11.17;8.20;;;;;;;;;;4974973;28;20202;-60
2022/04/27 06:43:16;;;;;;;10.43;8.20;;;;;;;;;;4981742;28;20209;-60
2022/04/27 06:45:43;;;;;;;10.07;8.43;;;;;;;;;;4977683;28;20220;-60
2022/04/27 06:48:11;;;;;;;10.60;8.70;;;;;;;;;;4983220;28;20260;-60
2022/04/27 06:50:38;;;;;;;12.02;8.38;;;;;;;;;;4978615;28;20288;-60
2022/04/27 06:53:05;;;;;;;13.52;8.73;;;;;;;;;;4973289;28;20210;-59
2022/04/27 06:55:33;;;;;;;11.20;8.95;;;;;;;;;;4974506;28;20210;-59
2022/04/27 06:58:01;;;;;;;12.60;8.80;;;;;;;;;;4972579;28;20672;-60
2022/04/27 07:00:28;;;;;;;11.17;8.63;;;;;;;;;;4970627;28;20214;-60
2022/04/27 07:02:56;;;;;;;12.53;9.43;;;;;;;;;;4952563;29;20219;-61
2022/04/27 07:05:25;;;;;;;14.30;8.80;;;;;;;;;;4965303;28;20218;-60
2022/04/27 07:07:52;;;;;;;12.17;8.40;;;;;;;;;;4984300;28;20710;-60
2022/04/27 07:10:19;;;;;;;12.43;9.57;;;;;;;;;;4982741;28;20215;-62
2022/04/27 07:12:47;;;;;;;11.10;8.25;;;;;;;;;;4962979;28;20297;-60
2022/04/27 07:15:15;;;;;;;10.90;8.37;;;;;;;;;;4971311;28;20234;-60
2022/04/27 07:17:43;;;;;;;10.07;8.75;;;;;;;;;;4971199;28;20198;-59
2022/04/27 07:20:10;;;;;;;11.03;8.43;;;;;;;;;;4971163;28;20215;-62
2022/04/27 07:22:37;;;;;;;10.90;8.80;;;;;;;;;;4969424;28;20211;-61
2022/04/27 07:25:04;;;;;;;11.13;9.23;;;;;;;;;;4970711;28;20272;-58
2022/04/27 07:27:32;;;;;;;9.63;8.30;;;;;;;;;;4969686;28;20223;-60
2022/04/27 07:29:59;;;;;;;9.82;8.27;;;;;;;;;;4971080;28;20369;-57
2022/04/27 07:32:27;;;;;;;12.27;9.10;;;;;;;;;;4971128;28;20301;-57
2022/04/27 07:34:54;;;;;;;11.73;8.15;;;;;;;;;;4970989;28;20234;-60
2022/04/27 07:37:21;;;;;;;12.00;9.20;;;;;;;;;;4964195;28;20288;-57
2022/04/27 07:39:48;;;;;;;11.60;8.68;;;;;;;;;;4969093;28;20226;-57
2022/04/27 07:42:16;;;;;;;8.48;7.57;;;;;;;;;;4969555;28;20265;-57
2022/04/27 07:44:43;;;;;;;9.73;7.72;;;;;;;;;;4970269;28;20314;-57
2022/04/27 07:47:13;;;;;;;12.27;9.10;;;;;;;;;;4970066;28;20635;-57
2022/04/27 07:49:41;;;;;;;12.35;8.63;;;;;;;;;;4969839;28;20222;-57
2022/04/27 07:52:09;;;;;;;10.38;8.55;;;;;;;;;;4970036;28;20225;-57
2022/04/27 07:54:36;;;;;;;11.38;7.65;;;;;;;;;;4969411;28;20325;-57
2022/04/27 07:57:03;;;;;;;9.82;8.30;;;;;;;;;;4969858;28;20229;-57
2022/04/27 07:59:30;;;;;;;9.10;8.10;;;;;;;;;;4969854;28;20253;-57
2022/04/27 08:01:57;;;;;;;10.93;8.25;;;;;;;;;;4969568;28;20628;-59
2022/04/27 08:04:24;;;;;;;9.43;7.88;;;;;;;;;;4969926;28;20221;-57
2022/04/27 08:06:53;;;;;;;13.65;8.73;;;;;;;;;;4969186;28;20242;-57
2022/04/27 08:09:20;;;;;;;10.10;8.23;;;;;;;;;;4969205;28;20241;-57
2022/04/27 08:11:47;;;;;;;11.27;8.60;;;;;;;;;;4969783;28;20214;-57
2022/04/27 08:14:14;;;;;;;11.60;8.50;;;;;;;;;;4969483;28;20590;-57
2022/04/27 08:16:41;;;;;;;11.25;8.82;;;;;;;;;;4968020;28;20206;-57
2022/04/27 08:19:08;;;;;;;10.90;8.00;;;;;;;;;;4968676;28;20245;-57
2022/04/27 08:21:35;;;;;;;9.73;7.90;;;;;;;;;;4969322;28;20214;-57
2022/04/27 08:24:08;;;;;;;9.77;8.73;;;;;;;;;;4969390;28;20631;-60
2022/04/27 08:26:35;;;;;;;12.95;8.07;;;;;;;;;;4969144;28;20611;-59
2022/04/27 08:29:02;;;;;;;10.63;8.45;;;;;;;;;;4969119;28;20237;-59
2022/04/27 08:31:29;;;;;;;10.60;8.13;;;;;;;;;;4969317;28;20214;-57
2022/04/27 08:33:56;;;;;;;9.50;7.68;;;;;;;;;;4968985;28;20245;-60
2022/04/27 08:36:23;;;;;;;9.75;7.57;;;;;;;;;;4968869;28;20819;-57
2022/04/27 08:38:51;;;;;;;9.18;7.72;;;;;;;;;;4966741;28;20226;-57
2022/04/27 08:41:20;;;;;;;7.90;5.90;;;;;;;;;;4968130;28;20301;-56
2022/04/27 08:43:47;;;;;;;9.85;7.78;;;;;;;;;;4969647;28;20218;-57
2022/04/27 08:46:15;;;;;;;11.07;7.60;;;;;;;;;;4969481;28;20218;-58
2022/04/27 08:48:42;;;;;;;12.93;8.77;;;;;;;;;;4969050;28;20205;-59
2022/04/27 08:51:11;;;;;;;9.73;7.65;;;;;;;;;;4969498;28;20227;-58
2022/04/27 08:53:38;;;;;;;10.55;7.55;;;;;;;;;;4968891;28;20743;-58
2022/04/27 08:56:06;;;;;;;11.52;8.63;;;;;;;;;;4963960;28;20214;-58
2022/04/27 08:58:34;;;;;;;10.02;7.85;;;;;;;;;;4962402;28;20210;-59
2022/04/27 09:01:01;;;;;;;8.85;7.82;;;;;;;;;;4969424;28;20202;-58
2022/04/27 09:03:30;;;;;;;8.45;7.15;;;;;;;;;;4969419;28;20668;-58
2022/04/27 09:05:59;;;;;;;10.13;7.25;;;;;;;;;;4969700;28;20222;-59
2022/04/27 09:08:27;;;;;;;9.70;8.13;;;;;;;;;;4973716;28;20328;-59
2022/04/27 09:11:13;;;;;;;8.38;7.47;;;;;;;;;;4979238;28;20206;-59
2022/04/27 09:13:41;;;;;;;8.13;6.70;;;;;;;;;;4974701;28;20221;-65
2022/04/27 09:16:09;;;;;;;9.98;6.43;;;;;;;;;;4970221;28;20261;-59
2022/04/27 09:21:55;;;;;;;8.52;7.30;;;;;;;;;;4966797;28;20337;-59
2022/04/27 09:24:22;;;;;;;9.73;6.65;;;;;;;;;;4970300;28;20206;-59
2022/04/27 09:26:58;;;;;;;7.88;6.93;;;;;;;;;;4971731;28;20268;-59
2022/04/27 09:29:27;;;;;;;10.35;7.18;;;;;;;;;;4963703;28;20228;-59
2022/04/27 09:31:56;;;;;;;8.57;7.78;;;;;;;;;;4975694;28;20688;-59
2022/04/27 09:34:29;;;;;;;9.70;5.97;;;;;;;;;;4985428;28;20275;-59
2022/04/27 09:36:56;;;;;;;10.18;7.55;;;;;;;;;;4978938;28;20261;-59
2022/04/27 09:39:25;;;;;;;8.43;7.53;;;;;;;;;;4977920;28;20221;-59
2022/04/27 09:41:52;;;;;;;7.30;5.88;;;;;;;;;;4969001;28;20611;-60
2022/04/27 09:44:29;;;;;;;7.60;6.40;;;;;;;;;;4972773;28;20206;-57
2022/04/27 09:46:57;;;;;;;7.07;6.38;;;;;;;;;;4980905;28;20531;-58
2022/04/27 09:49:24;;;;;;;11.25;7.70;;;;;;;;;;4967558;28;20685;-59
2022/04/27 09:51:52;;;;;;;8.80;7.20;;;;;;;;;;4968043;28;20218;-59
2022/04/27 09:54:20;;;;;;;10.95;7.63;;;;;;;;;;4979946;28;20951;-58
2022/04/27 09:56:51;;;;;;;8.15;7.13;;;;;;;;;;4960920;28;20209;-59
2022/04/27 09:59:20;;;;;;;6.97;6.38;;;;;;;;;;4969543;28;20305;-59
2022/04/27 10:01:49;;;;;;;8.13;7.18;;;;;;;;;;4975399;28;20298;-58
2022/04/27 10:04:20;;;;;;;5.70;5.28;;;;;;;;;;4977290;28;20209;-58
2022/04/27 10:06:47;;;;;;;7.47;6.05;;;;;;;;;;4972287;28;20236;-59
2022/04/27 10:09:15;;;;;;;8.45;6.07;;;;;;;;;;4970874;28;20799;-59
2022/04/27 10:11:43;;;;;;;7.20;6.50;;;;;;;;;;4967032;28;20214;-60
2022/04/27 10:14:11;;;;;;;6.45;5.78;;;;;;;;;;4967257;28;20532;-59
2022/04/27 10:16:38;;;;;;;6.47;5.88;;;;;;;;;;4966994;28;20297;-60
2022/04/27 10:19:11;;;;;;;9.63;6.30;;;;;;;;;;4966332;28;20276;-59
2022/04/27 10:21:43;;;;;;;5.20;4.72;;;;;;;;;;4965079;28;20276;-61
2022/04/27 10:24:11;;;;;;;6.40;5.90;;;;;;;;;;4967221;28;20308;-59
2022/04/27 10:26:39;;;;;;;7.05;5.88;;;;;;;;;;4964959;28;20309;-59
2022/04/27 10:29:08;;;;;;;7.80;6.78;;;;;;;;;;4966269;28;20214;-58
2022/04/27 10:31:54;;;;;;;7.43;6.43;;;;;;;;;;4967053;28;20219;-59
2022/04/27 10:34:23;;;;;;;7.57;6.07;;;;;;;;;;4967707;28;20214;-58
2022/04/27 10:36:50;;;;;;;7.72;5.38;;;;;;;;;;4965139;28;20210;-59
2022/04/27 10:39:19;;;;;;;6.22;5.63;;;;;;;;;;4966087;28;20207;-59
2022/04/27 10:41:49;;;;;;;6.63;5.35;;;;;;;;;;4963170;28;20233;-60
2022/04/27 10:44:17;;;;;;;6.72;5.05;;;;;;;;;;4966540;28;20198;-59
2022/04/27 10:46:44;;;;;;;6.13;5.57;;;;;;;;;;4966062;28;20210;-59
2022/04/27 10:49:25;;;;;;;5.38;4.97;;;;;;;;;;4966535;28;20234;-59
2022/04/27 10:52:01;;;;;;;5.80;5.18;;;;;;;;;;4966423;28;20408;-59
2022/04/27 10:54:31;;;;;;;5.25;4.75;;;;;;;;;;4965919;28;20266;-58
2022/04/27 10:57:30;;;;;;;4.88;4.43;;;;;;;;;;4969747;28;20209;-59
2022/04/27 10:59:59;;;;;;;2.45;2.35;;;;;;;;;;4968670;28;20211;-59
2022/04/27 11:02:33;;;;;;;3.83;3.63;;;;;;;;;;4969661;28;20297;-59
2022/04/27 11:05:03;;;;;;;4.68;4.28;;;;;;;;;;4969748;28;20337;-58
2022/04/27 11:07:36;;;;;;;4.60;4.32;;;;;;;;;;4967031;28;20249;-58
2022/04/27 11:10:15;;;;;;;3.22;3.00;;;;;;;;;;4969034;28;20234;-58
2022/04/27 11:12:43;;;;;;;4.20;3.80;;;;;;;;;;4969380;28;20228;-58
2022/04/27 11:15:11;;;;;;;3.58;3.38;;;;;;;;;;4969661;28;20333;-58
2022/04/27 11:17:40;;;;;;;2.50;2.40;;;;;;;;;;4969763;28;20214;-56
2022/04/27 11:20:22;;;;;;;4.40;3.05;;;;;;;;;;4970049;28;20206;-58
2022/04/27 11:22:49;;;;;;;3.42;3.22;;;;;;;;;;4969105;28;20309;-59
2022/04/27 11:25:23;;;;;;;3.58;3.28;;;;;;;;;;4968576;28;20546;-59
2022/04/27 11:27:50;;;;;;;3.35;3.15;;;;;;;;;;4969422;28;20292;-59
2022/04/27 11:30:18;;;;;;;2.80;2.63;;;;;;;;;;4969977;28;20306;-60
2022/04/27 11:32:47;;;;;;;3.50;2.72;;;;;;;;;;4969569;28;20214;-60
2022/04/27 11:35:15;;;;;;;2.63;2.50;;;;;;;;;;4968942;28;20285;-58
2022/04/27 11:37:42;;;;;;;2.72;2.53;;;;;;;;;;4958194;28;20269;-58
2022/04/27 11:40:13;;;;;;;3.05;2.85;;;;;;;;;;4976926;28;20294;-59
2022/04/27 11:42:44;;;;;;;3.63;3.35;;;;;;;;;;4969307;28;20211;-60
2022/04/27 11:45:15;;;;;;;3.42;2.40;;;;;;;;;;4967946;28;20214;-60
2022/04/27 11:47:42;;;;;;;3.08;2.88;;;;;;;;;;4965185;28;20211;-61
2022/04/27 11:50:09;;;;;;;3.45;2.60;;;;;;;;;;4966801;28;20216;-60
2022/04/27 11:52:38;;;;;;;2.50;2.40;;;;;;;;;;4958574;28;20222;-61
2022/04/27 11:55:11;;;;;;;2.40;2.30;;;;;;;;;;4968941;28;20230;-61
2022/04/27 11:57:39;;;;;;;1.88;1.77;;;;;;;;;;4968763;28;20218;-60
2022/04/27 12:00:07;;;;;;;2.40;2.25;;;;;;;;;;4969149;28;20230;-60
2022/04/27 12:02:34;;;;;;;2.53;2.35;;;;;;;;;;4968618;28;20391;-60
2022/04/27 12:05:07;;;;;;;1.90;1.90;;;;;;;;;;4968465;28;20222;-60
2022/04/27 12:07:36;;;;;;;2.25;2.08;;;;;;;;;;4967868;28;20214;-61
2022/04/27 12:10:05;;;;;;;2.78;2.58;;;;;;;;;;4962218;28;20769;-61
2022/04/27 12:12:32;;;;;;;3.47;2.47;;;;;;;;;;4966939;28;20578;-60
2022/04/27 12:15:05;;;;;;;2.50;2.40;;;;;;;;;;4968116;28;20720;-61
2022/04/27 12:17:47;;;;;;;5.28;1.88;;;;;;;;;;4968457;28;20222;-60
2022/04/27 12:20:26;;;;;;;2.08;1.98;;;;;;;;;;4941978;29;20204;-61
2022/04/27 12:22:53;;;;;;;2.58;2.47;;;;;;;;;;4948810;29;20223;-60
2022/04/27 12:25:22;;;;;;;2.60;2.50;;;;;;;;;;4948564;28;20203;-60
2022/04/27 12:27:50;;;;;;;2.22;2.13;;;;;;;;;;4943578;29;20242;-61
2022/04/27 12:30:20;;;;;;;1.92;1.92;;;;;;;;;;4949002;29;20230;-60
2022/04/27 12:32:47;;;;;;;2.00;1.90;;;;;;;;;;4948799;28;20640;-61
2022/04/27 12:38:09;;;;;;;2.08;1.98;;;;;;;;;;4948951;29;20249;-61
2022/04/27 12:40:38;;;;;;;1.75;1.75;;;;;;;;;;4944957;29;20324;-61
2022/04/27 12:43:07;;;;;;;1.85;1.70;;;;;;;;;;4944604;29;20207;-61
2022/04/27 12:45:35;;;;;;;2.08;2.00;;;;;;;;;;4948209;29;20215;-60
2022/04/27 12:48:02;;;;;;;1.58;1.58;;;;;;;;;;4947225;28;20207;-60
2022/04/27 12:50:35;;;;;;;2.88;2.50;;;;;;;;;;4944326;29;20650;-60
2022/04/27 12:53:07;;;;;;;2.03;1.90;;;;;;;;;;4947936;28;20253;-61
2022/04/27 12:55:34;;;;;;;1.92;1.83;;;;;;;;;;4947785;29;20317;-61
2022/04/27 12:58:03;;;;;;;1.90;1.80;;;;;;;;;;4944499;28;20241;-59
2022/04/27 13:00:40;;;;;;;1.48;1.38;;;;;;;;;;4948197;28;20685;-59
2022/04/27 13:03:08;;;;;;;2.40;2.20;;;;;;;;;;4947678;28;20293;-66
2022/04/27 13:05:37;;;;;;;2.20;2.10;;;;;;;;;;4949486;28;20227;-58
2022/04/27 13:08:04;;;;;;;3.13;2.83;;;;;;;;;;4949743;28;20207;-60
2022/04/27 13:13:18;;;;;;;2.63;2.40;;;;;;;;;;4949697;29;20202;-60
2022/04/27 13:15:46;;;;;;;1.90;1.90;;;;;;;;;;4949961;28;20318;-60
2022/04/27 13:18:13;;;;;;;2.80;2.67;;;;;;;;;;4949014;28;20290;-63
2022/04/27 13:20:40;;;;;;;3.30;2.10;;;;;;;;;;4948260;28;20298;-59
2022/04/27 13:23:07;;;;;;;1.85;1.73;;;;;;;;;;4948414;29;20589;-59
2022/04/27 13:25:34;;;;;;;1.88;1.55;;;;;;;;;;4948998;29;20212;-59
2022/04/27 13:28:01;;;;;;;1.88;1.77;;;;;;;;;;4949905;28;20211;-59
2022/04/27 13:30:30;;;;;;;1.85;1.80;;;;;;;;;;4949879;29;20218;-59
2022/04/27 13:32:58;;;;;;;1.58;1.58;;;;;;;;;;4948791;29;20350;-59
2022/04/27 13:35:25;;;;;;;1.75;1.65;;;;;;;;;;4949218;28;20207;-59
2022/04/27 13:37:52;;;;;;;2.08;1.60;;;;;;;;;;4949037;28;20211;-59
2022/04/27 13:40:22;;;;;;;1.80;1.70;;;;;;;;;;4947660;28;20210;-58
2022/04/27 13:48:58;;;;;;;1.60;1.60;;;;;;;;;;4934834;28;20193;-58
2022/04/27 13:51:25;;;;;;;3.60;1.75;;;;;;;;;;4948435;28;20257;-59
2022/04/27 13:53:52;;;;;;;1.38;1.38;;;;;;;;;;4948684;29;20207;-58
2022/04/27 13:56:20;;;;;;;1.85;1.75;;;;;;;;;;4948653;28;20234;-58
2022/04/27 13:58:47;;;;;;;2.70;1.65;;;;;;;;;;4947947;28;20239;-58
2022/04/27 14:01:14;;;;;;;1.60;1.60;;;;;;;;;;4948456;28;20268;-58
2022/04/27 14:03:41;;;;;;;1.50;1.50;;;;;;;;;;4949244;28;20948;-59
2022/04/27 14:06:09;;;;;;;1.33;1.33;;;;;;;;;;4943832;28;20677;-59
2022/04/27 14:08:36;;;;;;;1.90;1.80;;;;;;;;;;4951044;28;20340;-59
2022/04/27 14:11:04;;;;;;;1.60;1.60;;;;;;;;;;4941307;29;20219;-59
2022/04/27 14:13:35;;;;;;;1.70;1.70;;;;;;;;;;4948945;28;20211;-59
2022/04/27 14:19:09;;;;;;;2.08;1.90;;;;;;;;;;4942585;28;20230;-60
2022/04/27 14:21:38;;;;;;;1.60;1.50;;;;;;;;;;4929745;28;20254;-59
2022/04/27 14:24:05;;;;;;;1.90;1.80;;;;;;;;;;4929806;29;20219;-59
2022/04/27 14:26:32;;;;;;;2.20;2.00;;;;;;;;;;4940361;29;20240;-59
2022/04/27 14:28:59;;;;;;;3.08;1.77;;;;;;;;;;4948853;28;20677;-58
2022/04/27 14:31:26;;;;;;;1.88;1.85;;;;;;;;;;4950273;28;20767;-63
2022/04/27 14:33:54;;;;;;;1.50;1.50;;;;;;;;;;4952525;28;20274;-59
2022/04/27 14:36:21;;;;;;;1.65;1.65;;;;;;;;;;4952560;29;20327;-59
2022/04/27 14:38:49;;;;;;;1.65;1.65;;;;;;;;;;4957953;28;20222;-59
2022/04/27 14:41:18;;;;;;;1.70;1.70;;;;;;;;;;4952923;28;20211;-59
2022/04/27 14:43:45;;;;;;;1.77;1.65;;;;;;;;;;4952810;28;20233;-59
2022/04/27 14:46:13;;;;;;;2.10;1.55;;;;;;;;;;4952769;29;20254;-59
2022/04/27 14:48:42;;;;;;;2.50;1.63;;;;;;;;;;4961118;28;20272;-59
2022/04/27 14:51:09;;;;;;;1.65;1.65;;;;;;;;;;4952163;28;20254;-59
2022/04/27 14:53:37;;;;;;;2.50;1.52;;;;;;;;;;4952049;28;20211;-58
2022/04/27 14:56:05;;;;;;;1.90;1.90;;;;;;;;;;4952425;29;20539;-59
2022/04/27 14:58:33;;;;;;;1.80;1.70;;;;;;;;;;4949640;28;20689;-59
2022/04/27 15:01:01;;;;;;;1.42;1.42;;;;;;;;;;4941967;29;20670;-59
2022/04/27 15:03:28;;;;;;;1.80;1.75;;;;;;;;;;4941363;29;20219;-60
2022/04/27 15:05:55;;;;;;;1.50;1.40;;;;;;;;;;4940758;29;20307;-59
2022/04/27 15:08:23;;;;;;;1.80;1.50;;;;;;;;;;4951437;28;20239;-60
2022/04/27 15:10:50;;;;;;;1.30;1.30;;;;;;;;;;4951857;29;20214;-59
2022/04/27 15:13:18;;;;;;;1.70;1.60;;;;;;;;;;4938203;29;20231;-58